Albion, Rhode Island
Current Conditions -  °F | °C
As of 1:15 AM on Thursday 29 Jan 2015 (Local Time) from KSFZ Reporting Station
Clear Clear  
Wind Chill: -19°   Ceiling: Unl
Heat Index: -13°   Visibility: 10mi
Dew Point: -22°   Wind: 6mph
Humidity: 48%   Direction: 330°NNW
Pressure: 30.2"   Gusts: NA
Location:  41.95°N, 71.45°W
Report Text: KSFZ 290615Z 33005KT 10SM CLR M13/M22 A3020 RMK AO1
Loading
Personal Weather Stations






























Interactive Weather Map New forecast layout! Learn more

10-Day Weather Forecast

Advertisements
Track Severe Weather on mobile